Time;durP1;ratioP1;P1;durP2;ratioP2;P2;SDS_P1;SDS_P2;PMS_P1;PMS_P2;Temp;Humidity;BMP_temperature;BMP_pressure;BME280_temperature;BME280_humidity;BME280_pressure;Samples;Min_cycle;Max_cycle;Signal;HPM_P1;HPM_P2
2021/04/27 00:00:56;;;;;;;20.33;7.63;;;10.60;63.10;;;;;;5069044;28;20051;-84
2021/04/27 00:03:22;;;;;;;16.05;7.47;;;10.40;63.20;;;;;;5077119;28;20412;-84
2021/04/27 00:05:48;;;;;;;15.23;7.38;;;10.70;62.60;;;;;;5069673;28;20423;-84
2021/04/27 00:08:13;;;;;;;16.45;7.60;;;10.30;63.30;;;;;;5060260;28;20036;-83
2021/04/27 00:10:39;;;;;;;15.32;7.10;;;10.00;64.30;;;;;;5064271;28;20024;-84
2021/04/27 00:13:05;;;;;;;17.15;7.65;;;9.70;65.70;;;;;;5075826;28;20105;-83
2021/04/27 00:15:32;;;;;;;17.15;7.30;;;9.60;66.20;;;;;;5066249;28;20059;-84
2021/04/27 00:17:58;;;;;;;17.83;9.05;;;9.40;66.90;;;;;;5063164;28;20024;-83
2021/04/27 00:20:24;;;;;;;17.52;8.00;;;9.20;68.10;;;;;;5079800;28;20107;-83
2021/04/27 00:22:52;;;;;;;18.23;7.60;;;9.40;68.00;;;;;;5081263;28;20025;-83
2021/04/27 00:25:17;;;;;;;19.50;7.65;;;9.60;67.20;;;;;;5062717;28;20580;-83
2021/04/27 00:27:48;;;;;;;16.95;8.27;;;9.60;66.90;;;;;;5065496;28;20119;-83
2021/04/27 00:30:15;;;;;;;20.95;8.35;;;9.70;65.90;;;;;;5080418;28;20017;-83
2021/04/27 00:32:41;;;;;;;16.65;7.63;;;9.60;66.40;;;;;;5080279;28;20071;-84
2021/04/27 00:35:07;;;;;;;18.02;7.45;;;9.90;65.90;;;;;;5079277;28;20021;-84
2021/04/27 00:37:33;;;;;;;16.83;8.15;;;9.70;65.40;;;;;;5079346;28;20028;-83
2021/04/27 00:39:59;;;;;;;20.38;7.55;;;9.80;67.00;;;;;;5070528;28;20025;-83
2021/04/27 00:42:36;;;;;;;18.92;8.27;;;9.90;65.60;;;;;;5072593;28;20029;-84
2021/04/27 00:45:04;;;;;;;16.60;7.30;;;9.80;65.10;;;;;;5060697;28;20070;-84
2021/04/27 00:47:29;;;;;;;16.98;8.13;;;10.00;65.60;;;;;;5062590;28;20028;-83
2021/04/27 00:49:56;;;;;;;13.85;7.38;;;10.10;64.00;;;;;;5069561;28;20052;-84
2021/04/27 00:52:23;;;;;;;21.73;8.10;;;9.70;65.60;;;;;;5071769;28;20116;-83
2021/04/27 00:54:51;;;;;;;16.45;7.78;;;9.70;65.60;;;;;;5060434;28;20422;-84
2021/04/27 00:57:17;;;;;;;17.15;8.00;;;9.50;66.10;;;;;;5061350;28;20013;-84
2021/04/27 00:59:43;;;;;;;14.80;8.20;;;9.50;65.80;;;;;;5079104;28;20024;-84
2021/04/27 01:02:09;;;;;;;19.33;8.45;;;9.30;68.50;;;;;;5077959;28;20035;-84
2021/04/27 01:04:35;;;;;;;17.05;8.43;;;9.20;67.40;;;;;;5079946;28;20016;-84
2021/04/27 01:07:01;;;;;;;14.23;7.07;;;9.30;67.50;;;;;;5075022;28;20044;-84
2021/04/27 01:09:38;;;;;;;14.73;7.50;;;9.60;67.40;;;;;;5088522;28;20029;-83
2021/04/27 01:12:09;;;;;;;15.63;8.20;;;9.30;66.80;;;;;;5079735;28;20036;-83
2021/04/27 01:14:38;;;;;;;19.02;8.20;;;9.00;67.70;;;;;;5070956;28;20021;-84
2021/04/27 01:17:07;;;;;;;20.55;8.50;;;8.90;67.80;;;;;;5073051;28;20029;-83
2021/04/27 01:20:03;;;;;;;15.63;8.45;;;8.90;68.60;;;;;;5077993;28;20031;-83
2021/04/27 01:22:35;;;;;;;16.45;8.50;;;8.90;68.70;;;;;;5059901;28;20700;-83
2021/04/27 01:25:03;;;;;;;19.60;8.90;;;8.60;69.80;;;;;;5071511;28;20026;-83
2021/04/27 01:27:31;;;;;;;20.27;9.15;;;8.70;70.30;;;;;;5079045;28;20037;-84
2021/04/27 01:29:59;;;;;;;17.75;8.27;;;8.70;69.20;;;;;;5079560;28;20024;-83
2021/04/27 01:32:25;;;;;;;17.58;9.35;;;8.80;69.30;;;;;;5073113;28;20036;-83
2021/04/27 01:34:52;;;;;;;21.65;9.25;;;8.80;69.50;;;;;;5060322;28;20024;-83
2021/04/27 01:37:18;;;;;;;20.73;9.43;;;8.90;69.60;;;;;;5072014;28;20061;-83
2021/04/27 01:39:45;;;;;;;16.75;7.97;;;8.70;69.50;;;;;;5078083;28;20031;-83
2021/04/27 01:42:11;;;;;;;15.77;8.95;;;8.70;71.20;;;;;;5077763;28;20040;-83
2021/04/27 01:44:39;;;;;;;18.63;8.05;;;8.70;69.70;;;;;;5078009;28;20482;-83
2021/04/27 01:47:07;;;;;;;22.30;8.90;;;8.80;71.80;;;;;;5077890;28;20035;-83
2021/04/27 01:49:34;;;;;;;20.38;8.70;;;8.70;70.20;;;;;;5072130;28;20471;-84
2021/04/27 01:52:00;;;;;;;18.05;8.70;;;8.60;70.00;;;;;;5072189;28;20403;-84
2021/04/27 01:54:28;;;;;;;15.13;9.20;;;8.70;70.30;;;;;;5071276;28;20108;-84
2021/04/27 01:56:54;;;;;;;19.20;9.48;;;8.70;70.00;;;;;;5072048;28;20025;-83
2021/04/27 01:59:20;;;;;;;16.67;8.65;;;8.60;69.50;;;;;;5075988;28;20044;-83
2021/04/27 02:01:47;;;;;;;19.25;8.82;;;8.40;70.60;;;;;;5066793;28;20033;-83
2021/04/27 02:04:20;;;;;;;16.23;8.60;;;8.30;71.20;;;;;;5078493;28;20050;-83
2021/04/27 02:06:46;;;;;;;23.25;9.02;;;8.20;71.70;;;;;;5078835;28;20032;-83
2021/04/27 02:09:13;;;;;;;21.20;8.93;;;8.30;73.80;;;;;;5077722;28;20051;-83
2021/04/27 02:11:41;;;;;;;17.20;8.52;;;8.40;70.70;;;;;;5075452;28;20093;-83
2021/04/27 02:14:10;;;;;;;23.48;11.07;;;8.40;70.90;;;;;;5075820;28;20046;-83
2021/04/27 02:16:47;;;;;;;21.30;9.60;;;8.60;70.30;;;;;;5077674;28;20028;-83
2021/04/27 02:19:14;;;;;;;23.92;9.15;;;8.70;70.30;;;;;;5068074;28;20024;-83
2021/04/27 02:21:40;;;;;;;18.20;8.88;;;8.80;70.30;;;;;;5073092;28;20368;-83
2021/04/27 02:24:08;;;;;;;19.92;9.80;;;8.70;70.10;;;;;;5072444;28;20079;-83
2021/04/27 02:26:35;;;;;;;20.20;9.32;;;8.60;70.00;;;;;;5071640;28;20032;-83
2021/04/27 02:29:04;;;;;;;20.27;9.80;;;8.60;70.60;;;;;;5058750;28;20356;-83
2021/04/27 02:31:32;;;;;;;20.08;9.43;;;8.50;70.30;;;;;;5071054;28;20032;-83
2021/04/27 02:34:00;;;;;;;15.15;9.73;;;8.60;70.70;;;;;;5075001;28;20021;-83
2021/04/27 02:36:27;;;;;;;17.55;8.98;;;8.50;70.70;;;;;;5075123;28;20035;-82
2021/04/27 02:38:54;;;;;;;20.02;10.20;;;8.50;71.20;;;;;;5080670;28;20025;-83
2021/04/27 02:41:29;;;;;;;20.00;10.05;;;8.50;70.90;;;;;;5074590;28;20044;-83
2021/04/27 02:43:55;;;;;;;20.50;9.10;;;8.50;70.20;;;;;;5076667;28;20468;-83
2021/04/27 02:46:21;;;;;;;21.85;9.40;;;8.50;70.20;;;;;;5077972;28;20036;-83
2021/04/27 02:48:47;;;;;;;20.75;10.25;;;8.50;71.00;;;;;;5072374;28;20021;-83
2021/04/27 02:51:13;;;;;;;21.20;10.02;;;8.60;71.10;;;;;;5069349;28;20105;-83
2021/04/27 02:53:39;;;;;;;20.38;9.40;;;8.50;70.70;;;;;;5072993;28;20044;-83
2021/04/27 02:56:05;;;;;;;20.23;9.77;;;8.50;71.70;;;;;;5077434;28;20482;-83
2021/04/27 02:58:30;;;;;;;17.58;10.30;;;8.40;71.90;;;;;;5078152;28;20491;-83
2021/04/27 03:00:56;;;;;;;22.08;9.13;;;8.20;72.00;;;;;;5071969;28;20945;-83
2021/04/27 03:03:22;;;;;;;21.85;9.85;;;8.10;72.50;;;;;;5076780;28;20020;-83
2021/04/27 03:05:48;;;;;;;18.00;9.60;;;8.00;72.90;;;;;;5066419;28;20052;-83
2021/04/27 03:08:14;;;;;;;17.83;9.48;;;8.40;73.00;;;;;;5064124;28;20025;-83
2021/04/27 03:10:39;;;;;;;21.42;9.70;;;8.50;71.30;;;;;;5069418;28;20386;-83
2021/04/27 03:13:05;;;;;;;25.45;11.40;;;8.50;72.00;;;;;;5066752;28;20039;-83
2021/04/27 03:15:31;;;;;;;20.70;11.23;;;8.50;72.50;;;;;;5062530;28;20025;-83
2021/04/27 03:17:57;;;;;;;19.65;11.25;;;8.60;73.00;;;;;;5057873;28;20028;-82
2021/04/27 03:20:23;;;;;;;28.92;12.93;;;8.70;73.70;;;;;;5056314;28;20028;-82
2021/04/27 03:22:49;;;;;;;30.52;12.05;;;8.60;73.70;;;;;;5068608;28;20024;-83
2021/04/27 03:25:15;;;;;;;26.10;11.07;;;8.90;72.40;;;;;;5077187;28;20063;-82
2021/04/27 03:27:43;;;;;;;23.90;12.20;;;9.00;72.60;;;;;;5077393;28;20028;-83
2021/04/27 03:30:11;;;;;;;30.25;12.18;;;9.40;71.40;;;;;;5077051;28;20108;-83
2021/04/27 03:32:37;;;;;;;24.08;12.70;;;9.30;71.50;;;;;;5076507;28;20559;-83
2021/04/27 03:35:06;;;;;;;26.17;12.65;;;9.20;72.10;;;;;;5069404;28;20479;-83
2021/04/27 03:37:32;;;;;;;26.73;12.77;;;8.90;74.30;;;;;;5068560;28;20432;-83
2021/04/27 03:39:58;;;;;;;28.17;13.32;;;9.20;72.80;;;;;;5057941;28;20024;-83
2021/04/27 03:42:24;;;;;;;29.17;13.15;;;9.50;71.90;;;;;;5071240;28;20037;-83
2021/04/27 03:44:50;;;;;;;22.48;13.75;;;9.60;70.80;;;;;;5077275;28;20399;-83
2021/04/27 03:47:15;;;;;;;27.65;14.07;;;9.60;70.80;;;;;;5076617;28;20564;-83
2021/04/27 03:49:41;;;;;;;25.58;14.07;;;9.50;71.20;;;;;;5060079;28;20040;-83
2021/04/27 03:52:07;;;;;;;32.85;14.35;;;9.50;71.40;;;;;;5070159;28;20028;-83
2021/04/27 03:54:33;;;;;;;23.75;14.20;;;9.50;71.60;;;;;;5076358;28;20028;-83
2021/04/27 03:56:59;;;;;;;22.73;12.73;;;9.40;71.60;;;;;;5076857;28;20016;-83
2021/04/27 03:59:25;;;;;;;27.50;15.02;;;9.40;71.90;;;;;;5076900;28;20429;-83
2021/04/27 04:01:52;;;;;;;24.50;13.23;;;9.60;71.10;;;;;;5075163;28;20067;-83
2021/04/27 04:04:18;;;;;;;27.35;14.88;;;9.60;70.80;;;;;;5071797;28;20434;-83
2021/04/27 04:06:44;;;;;;;29.13;14.77;;;9.40;71.70;;;;;;5065491;28;20082;-83
2021/04/27 04:09:11;;;;;;;29.33;14.70;;;9.40;71.40;;;;;;5060434;28;20085;-83
2021/04/27 04:11:37;;;;;;;26.55;14.02;;;9.40;71.30;;;;;;5069880;28;20064;-83
2021/04/27 04:14:03;;;;;;;23.48;15.40;;;9.40;71.40;;;;;;5073982;28;20029;-83
2021/04/27 04:16:29;;;;;;;28.73;14.32;;;9.10;72.00;;;;;;5061082;28;20055;-83
2021/04/27 04:18:55;;;;;;;24.10;13.65;;;9.20;71.60;;;;;;5057221;28;20048;-83
2021/04/27 04:21:23;;;;;;;32.35;15.13;;;9.20;71.20;;;;;;5068498;28;20032;-83
2021/04/27 04:23:49;;;;;;;26.58;14.55;;;9.20;71.20;;;;;;5069240;28;20086;-83
2021/04/27 04:26:15;;;;;;;24.23;14.40;;;9.10;71.30;;;;;;5076108;28;20103;-83
2021/04/27 04:28:41;;;;;;;25.33;15.98;;;8.90;71.60;;;;;;5076874;28;20064;-83
2021/04/27 04:31:07;;;;;;;25.23;14.55;;;8.70;72.50;;;;;;5064810;28;20025;-83
2021/04/27 04:33:34;;;;;;;30.38;16.08;;;9.10;72.20;;;;;;5073597;28;20483;-83
2021/04/27 04:36:00;;;;;;;27.40;14.80;;;9.00;71.60;;;;;;5065121;28;20032;-83
2021/04/27 04:38:26;;;;;;;27.33;16.35;;;8.80;72.30;;;;;;5076569;28;20020;-83
2021/04/27 04:40:52;;;;;;;30.33;15.27;;;8.90;72.00;;;;;;5075864;28;20330;-83
2021/04/27 04:43:18;;;;;;;29.38;15.88;;;8.70;71.70;;;;;;5070600;28;20580;-83
2021/04/27 04:45:44;;;;;;;29.40;15.90;;;8.60;72.70;;;;;;5063674;28;20115;-83
2021/04/27 04:48:11;;;;;;;31.55;16.13;;;8.70;72.70;;;;;;5061208;28;20107;-83
2021/04/27 04:50:37;;;;;;;27.05;16.67;;;8.50;73.80;;;;;;5061461;28;20040;-83
2021/04/27 04:53:05;;;;;;;26.67;15.68;;;8.50;73.10;;;;;;5075266;28;20020;-83
2021/04/27 04:55:32;;;;;;;25.40;15.60;;;8.60;73.80;;;;;;5062180;28;20016;-83
2021/04/27 04:57:57;;;;;;;30.92;15.88;;;8.70;73.10;;;;;;5069823;28;20039;-83
2021/04/27 05:00:24;;;;;;;29.15;16.08;;;8.70;72.20;;;;;;5056868;28;20029;-83
2021/04/27 05:02:50;;;;;;;27.48;15.15;;;8.70;73.00;;;;;;5080228;28;20093;-83
2021/04/27 05:05:17;;;;;;;29.63;16.88;;;8.70;72.40;;;;;;5060406;28;20108;-83
2021/04/27 05:07:47;;;;;;;30.90;17.42;;;8.60;72.50;;;;;;5075903;28;20028;-83
2021/04/27 05:10:15;;;;;;;27.20;16.85;;;8.40;73.50;;;;;;5072569;28;20032;-82
2021/04/27 05:12:42;;;;;;;37.08;18.40;;;8.10;74.70;;;;;;5075655;28;20032;-83
2021/04/27 05:15:09;;;;;;;25.92;16.88;;;8.20;75.20;;;;;;5078860;28;20028;-83
2021/04/27 05:17:36;;;;;;;33.22;17.42;;;8.10;75.50;;;;;;5079200;28;20483;-83
2021/04/27 05:20:03;;;;;;;27.63;16.38;;;8.00;75.80;;;;;;5061172;28;20028;-82
2021/04/27 05:22:29;;;;;;;28.67;17.30;;;8.30;75.10;;;;;;5079954;28;20450;-79
2021/04/27 05:24:55;;;;;;;29.58;16.80;;;8.10;74.20;;;;;;5079352;28;20032;-80
2021/04/27 05:27:22;;;;;;;28.77;18.30;;;8.40;74.50;;;;;;5071260;28;20476;-81
2021/04/27 05:29:51;;;;;;;36.17;17.90;;;8.30;73.70;;;;;;5079442;28;20060;-83
2021/04/27 05:32:17;;;;;;;30.38;18.67;;;8.20;74.70;;;;;;5068093;28;20395;-82
2021/04/27 05:34:43;;;;;;;31.02;17.15;;;8.20;74.70;;;;;;5059630;28;20021;-80
2021/04/27 05:37:09;;;;;;;30.02;17.25;;;8.40;74.00;;;;;;5074931;28;20025;-81
2021/04/27 05:39:35;;;;;;;31.00;18.20;;;8.50;73.60;;;;;;5065833;28;20024;-75
2021/04/27 05:42:02;;;;;;;36.72;18.00;;;8.60;73.30;;;;;;5078901;28;20064;-75
2021/04/27 05:44:28;;;;;;;30.65;18.15;;;8.60;73.90;;;;;;5075490;28;20029;-76
2021/04/27 05:46:54;;;;;;;31.63;18.50;;;8.50;74.20;;;;;;5079179;28;20035;-78
2021/04/27 05:49:20;;;;;;;35.17;17.20;;;8.50;73.30;;;;;;5072980;28;20028;-77
2021/04/27 05:51:46;;;;;;;31.27;16.15;;;8.60;73.10;;;;;;5077957;28;20048;-74
2021/04/27 05:54:11;;;;;;;31.52;18.20;;;8.70;73.90;;;;;;5072444;28;20025;-74
2021/04/27 05:56:37;;;;;;;35.53;18.15;;;8.60;73.60;;;;;;5075107;28;20020;-81
2021/04/27 05:59:04;;;;;;;30.35;18.73;;;8.60;74.50;;;;;;5057948;28;20021;-77
2021/04/27 06:01:30;;;;;;;35.00;19.13;;;8.60;74.50;;;;;;5063931;28;20376;-78
2021/04/27 06:03:56;;;;;;;41.65;25.13;;;8.40;75.50;;;;;;5062736;28;20522;-81
2021/04/27 06:06:22;;;;;;;54.72;31.67;;;8.60;75.80;;;;;;5066656;28;20036;-81
2021/04/27 06:08:48;;;;;;;30.10;17.48;;;8.70;75.30;;;;;;5067693;28;20106;-80
2021/04/27 06:11:15;;;;;;;38.30;19.88;;;9.00;74.40;;;;;;5066247;28;20486;-80
2021/04/27 06:13:40;;;;;;;35.90;19.92;;;8.80;74.30;;;;;;5069762;28;20535;-80
2021/04/27 06:16:07;;;;;;;32.35;19.45;;;9.00;74.30;;;;;;5067824;28;20031;-82
2021/04/27 06:18:32;;;;;;;35.08;19.27;;;9.40;73.70;;;;;;5062082;28;20051;-80
2021/04/27 06:20:59;;;;;;;31.13;16.92;;;9.50;73.40;;;;;;5069349;28;20430;-80
2021/04/27 06:23:25;;;;;;;29.98;18.55;;;9.50;74.20;;;;;;5070458;28;20025;-82
2021/04/27 06:25:51;;;;;;;34.58;19.67;;;9.50;73.50;;;;;;5067030;28;20403;-81
2021/04/27 06:28:17;;;;;;;36.17;20.63;;;9.60;73.20;;;;;;5070419;28;20064;-79
2021/04/27 06:30:44;;;;;;;39.83;19.98;;;9.60;73.30;;;;;;5083260;28;20058;-78
2021/04/27 06:33:10;;;;;;;35.10;19.52;;;9.80;73.40;;;;;;5062008;28;20397;-79
2021/04/27 06:35:37;;;;;;;31.60;18.13;;;9.90;72.70;;;;;;5067763;28;20040;-78
2021/04/27 06:38:03;;;;;;;31.70;19.35;;;10.00;72.60;;;;;;5071791;28;20021;-79
2021/04/27 06:40:29;;;;;;;35.38;20.30;;;10.20;72.00;;;;;;5073523;28;20045;-79
2021/04/27 06:42:55;;;;;;;35.65;19.77;;;10.30;72.20;;;;;;5068275;28;20052;-79
2021/04/27 06:45:21;;;;;;;38.00;19.58;;;10.30;72.00;;;;;;5074016;28;20039;-80
2021/04/27 06:47:48;;;;;;;36.35;20.63;;;10.30;72.00;;;;;;5073527;28;20028;-80
2021/04/27 06:50:16;;;;;;;30.58;20.08;;;10.40;71.90;;;;;;5067902;28;20029;-80
2021/04/27 06:52:43;;;;;;;35.53;20.83;;;10.70;71.30;;;;;;5078135;28;20061;-80
2021/04/27 06:55:09;;;;;;;31.48;19.65;;;10.70;70.90;;;;;;5067789;28;20071;-80
2021/04/27 06:57:35;;;;;;;30.70;19.85;;;10.80;70.70;;;;;;5065945;28;20558;-80
2021/04/27 07:00:01;;;;;;;36.33;20.63;;;10.80;69.90;;;;;;5076468;28;20055;-80
2021/04/27 07:02:28;;;;;;;29.45;18.67;;;10.90;70.20;;;;;;5071056;28;20023;-80
2021/04/27 07:04:54;;;;;;;27.35;18.38;;;11.80;68.60;;;;;;5070754;28;20024;-81
2021/04/27 07:07:20;;;;;;;34.03;19.00;;;13.00;65.60;;;;;;5069724;28;20078;-81
2021/04/27 07:09:46;;;;;;;27.60;18.67;;;14.10;63.20;;;;;;5077790;28;20030;-82
2021/04/27 07:12:12;;;;;;;29.33;18.08;;;15.70;59.70;;;;;;5063485;28;21078;-81
2021/04/27 07:14:37;;;;;;;27.90;18.25;;;15.60;57.90;;;;;;5076404;28;20067;-81
2021/04/27 07:17:03;;;;;;;29.13;19.35;;;16.40;58.20;;;;;;5064632;28;20020;-81
2021/04/27 07:19:29;;;;;;;28.67;18.00;;;16.80;56.70;;;;;;5074527;28;20391;-82
2021/04/27 07:21:55;;;;;;;28.50;18.00;;;16.00;55.60;;;;;;5077658;28;20029;-82
2021/04/27 07:24:21;;;;;;;30.63;17.95;;;16.90;57.50;;;;;;5072859;28;20081;-82
2021/04/27 07:26:47;;;;;;;34.35;18.15;;;16.40;57.10;;;;;;5067827;28;20565;-81
2021/04/27 07:29:16;;;;;;;26.45;17.95;;;16.80;55.60;;;;;;5076808;28;20107;-82
2021/04/27 07:31:42;;;;;;;28.80;17.98;;;16.90;55.80;;;;;;5069512;28;20064;-81
2021/04/27 07:34:08;;;;;;;26.98;18.13;;;16.40;55.40;;;;;;5064232;28;20032;-81
2021/04/27 07:36:35;;;;;;;28.45;19.00;;;16.40;56.30;;;;;;5076115;28;20048;-81
2021/04/27 07:39:03;;;;;;;26.65;18.67;;;15.90;56.10;;;;;;5074719;28;20039;-81
2021/04/27 07:41:29;;;;;;;31.95;19.80;;;16.40;56.10;;;;;;5064057;28;20518;-82
2021/04/27 07:43:55;;;;;;;23.27;17.98;;;15.90;55.60;;;;;;5074522;28;20048;-80
2021/04/27 07:46:21;;;;;;;25.65;18.35;;;15.70;57.40;;;;;;5089146;28;20027;-81
2021/04/27 07:48:47;;;;;;;25.25;18.00;;;16.10;56.10;;;;;;5078022;28;20098;-80
2021/04/27 07:51:14;;;;;;;27.63;17.77;;;16.90;55.50;;;;;;5077248;28;20486;-81
2021/04/27 07:53:40;;;;;;;23.42;17.88;;;17.00;54.40;;;;;;5073382;28;20036;-81
2021/04/27 07:56:06;;;;;;;26.42;17.77;;;17.00;55.10;;;;;;5063222;28;20489;-81
2021/04/27 07:58:32;;;;;;;27.90;18.75;;;16.80;54.50;;;;;;5076621;28;20090;-81
2021/04/27 08:00:58;;;;;;;28.83;18.27;;;16.50;56.20;;;;;;5076018;28;20024;-81
2021/04/27 08:03:23;;;;;;;27.90;17.08;;;16.90;54.00;;;;;;5061294;28;20066;-80
2021/04/27 08:05:49;;;;;;;24.80;17.20;;;17.20;54.70;;;;;;5058915;28;20031;-81
2021/04/27 08:08:15;;;;;;;27.45;18.50;;;17.70;54.20;;;;;;5076313;28;20099;-77
2021/04/27 08:10:41;;;;;;;24.60;17.23;;;17.20;53.70;;;;;;5067371;28;20050;-80
2021/04/27 08:13:08;;;;;;;25.13;18.00;;;17.70;54.90;;;;;;5066593;28;20523;-80
2021/04/27 08:15:35;;;;;;;30.40;17.10;;;17.90;53.30;;;;;;5061417;28;20024;-79
2021/04/27 08:18:02;;;;;;;24.63;17.00;;;18.30;53.00;;;;;;5066098;28;20461;-81
2021/04/27 08:20:33;;;;;;;38.22;18.42;;;18.10;52.10;;;;;;5074135;28;20506;-81
2021/04/27 08:22:59;;;;;;;29.73;17.00;;;18.30;52.40;;;;;;5075749;28;20032;-81
2021/04/27 08:25:25;;;;;;;22.88;17.15;;;18.40;53.10;;;;;;5076710;28;20467;-81
2021/04/27 08:27:52;;;;;;;21.35;16.73;;;18.20;52.10;;;;;;5075673;28;20052;-81
2021/04/27 08:30:21;;;;;;;23.02;16.75;;;18.70;52.30;;;;;;5072486;28;20052;-81
2021/04/27 08:32:48;;;;;;;23.67;16.45;;;19.00;51.60;;;;;;5065373;28;20079;-81
2021/04/27 08:35:14;;;;;;;21.42;16.83;;;19.10;52.20;;;;;;5077523;28;20095;-81
2021/04/27 08:37:40;;;;;;;26.38;16.38;;;19.20;51.60;;;;;;5080746;28;20021;-82
2021/04/27 08:40:08;;;;;;;22.10;16.88;;;19.60;50.70;;;;;;5072670;28;20052;-83
2021/04/27 08:42:35;;;;;;;21.95;16.38;;;19.80;49.60;;;;;;5059903;28;20029;-82
2021/04/27 08:45:04;;;;;;;21.00;16.52;;;19.70;49.80;;;;;;5075709;28;20033;-82
2021/04/27 08:47:29;;;;;;;22.67;17.48;;;19.80;49.70;;;;;;5079233;28;20032;-83
2021/04/27 08:49:55;;;;;;;22.73;17.20;;;19.90;49.40;;;;;;5078953;28;20091;-82
2021/04/27 08:52:21;;;;;;;20.73;16.35;;;20.20;49.50;;;;;;5079389;28;20033;-82
2021/04/27 08:54:47;;;;;;;22.95;18.15;;;20.10;50.10;;;;;;5080247;28;20020;-82
2021/04/27 08:57:13;;;;;;;23.13;16.83;;;20.50;47.80;;;;;;5078733;28;20048;-81
2021/04/27 08:59:40;;;;;;;23.85;18.27;;;20.50;47.40;;;;;;5080028;28;20017;-81
2021/04/27 09:02:06;;;;;;;19.75;16.33;;;20.70;49.40;;;;;;5064876;28;20029;-81
2021/04/27 09:04:48;;;;;;;24.95;17.35;;;21.10;49.00;;;;;;5066968;28;20151;-82
2021/04/27 09:07:19;;;;;;;21.13;16.05;;;21.10;48.40;;;;;;5071272;28;20028;-82
2021/04/27 09:09:48;;;;;;;24.25;16.38;;;21.40;48.10;;;;;;5071542;28;20506;-82
2021/04/27 09:12:22;;;;;;;24.23;16.58;;;21.50;48.00;;;;;;5077729;28;20028;-82
2021/04/27 09:14:48;;;;;;;21.40;16.50;;;21.60;46.70;;;;;;5080136;28;20032;-82
2021/04/27 09:17:14;;;;;;;22.70;16.42;;;22.10;45.90;;;;;;5068359;28;20376;-85
2021/04/27 09:19:46;;;;;;;22.33;15.43;;;22.00;46.30;;;;;;5066793;28;20029;-85
2021/04/27 09:22:14;;;;;;;21.05;15.45;;;21.90;46.70;;;;;;5071987;28;20029;-83
2021/04/27 09:24:47;;;;;;;19.23;15.77;;;22.00;46.50;;;;;;5073812;28;20507;-83
2021/04/27 09:27:23;;;;;;;19.88;17.13;;;21.90;46.00;;;;;;5071146;28;20139;-83
2021/04/27 09:29:49;;;;;;;22.90;16.08;;;22.40;45.20;;;;;;5078116;28;20025;-82
2021/04/27 09:32:31;;;;;;;22.15;16.15;;;22.10;45.90;;;;;;5073459;28;20021;-82
2021/04/27 09:34:57;;;;;;;20.05;15.10;;;22.60;45.30;;;;;;5079465;28;20021;-81
2021/04/27 09:37:23;;;;;;;26.55;15.30;;;22.80;45.60;;;;;;5079508;28;20054;-82
2021/04/27 09:39:51;;;;;;;18.20;14.40;;;22.70;45.20;;;;;;5078726;28;20024;-83
2021/04/27 09:42:22;;;;;;;20.73;14.60;;;22.50;43.50;;;;;;5074064;28;20024;-82
2021/04/27 09:44:53;;;;;;;16.65;13.85;;;23.30;42.30;;;;;;5066071;28;20043;-81
2021/04/27 09:47:26;;;;;;;20.23;14.70;;;23.50;43.30;;;;;;5074702;28;20115;-81
2021/04/27 09:50:04;;;;;;;17.88;13.55;;;24.20;43.20;;;;;;5078739;28;20442;-81
2021/04/27 09:52:32;;;;;;;18.63;13.10;;;24.40;41.40;;;;;;5078916;28;20031;-81
2021/04/27 09:55:04;;;;;;;17.25;12.70;;;23.50;39.80;;;;;;5079115;28;20027;-80
2021/04/27 09:57:37;;;;;;;18.83;13.35;;;24.00;41.10;;;;;;5078825;28;20021;-80
2021/04/27 10:00:19;;;;;;;16.73;13.55;;;24.60;39.30;;;;;;5079074;28;20107;-81
2021/04/27 10:02:45;;;;;;;16.80;12.43;;;24.60;36.40;;;;;;5067659;28;20440;-80
2021/04/27 10:05:11;;;;;;;17.45;12.18;;;24.80;40.00;;;;;;5078083;28;20037;-81
2021/04/27 10:07:39;;;;;;;15.18;11.68;;;25.10;38.80;;;;;;5076665;28;20039;-81
2021/04/27 10:10:07;;;;;;;17.85;12.55;;;25.20;36.70;;;;;;5076440;28;20440;-81
2021/04/27 10:12:34;;;;;;;15.35;12.48;;;25.60;37.70;;;;;;5068279;28;20029;-80
2021/04/27 10:15:00;;;;;;;13.80;10.82;;;25.50;37.40;;;;;;5078390;28;20383;-80
2021/04/27 10:17:27;;;;;;;18.75;13.05;;;25.70;37.40;;;;;;5078899;28;20483;-80
2021/04/27 10:19:53;;;;;;;17.80;12.65;;;25.20;36.80;;;;;;5078499;28;20082;-79
2021/04/27 10:22:19;;;;;;;17.38;12.25;;;25.80;36.70;;;;;;5078505;28;20103;-78
2021/04/27 10:24:46;;;;;;;15.38;12.88;;;26.70;37.30;;;;;;5078340;28;20437;-79
2021/04/27 10:27:14;;;;;;;15.20;11.65;;;26.30;34.70;;;;;;5078262;28;20017;-79
2021/04/27 10:29:40;;;;;;;17.83;12.50;;;26.20;32.40;;;;;;5078308;28;20105;-78
2021/04/27 10:32:18;;;;;;;18.65;12.02;;;26.40;34.20;;;;;;5076622;28;20024;-79
2021/04/27 10:35:08;;;;;;;15.55;12.13;;;27.10;34.40;;;;;;5066988;28;20047;-79
2021/04/27 10:38:00;;;;;;;15.43;12.93;;;26.00;34.30;;;;;;5077847;28;20036;-77
2021/04/27 10:40:48;;;;;;;14.85;11.30;;;26.60;33.60;;;;;;5064277;28;20041;-78
2021/04/27 10:43:23;;;;;;;13.90;11.15;;;27.20;33.70;;;;;;5071606;28;20032;-77
2021/04/27 10:46:18;;;;;;;15.25;12.50;;;26.70;31.10;;;;;;5063011;28;20036;-77
2021/04/27 10:48:45;;;;;;;14.40;11.35;;;26.30;30.60;;;;;;5077286;28;20079;-81
2021/04/27 10:51:21;;;;;;;14.80;11.13;;;26.90;31.30;;;;;;5081510;28;20044;-81
2021/04/27 10:54:06;;;;;;;15.40;11.20;;;27.30;30.60;;;;;;5077645;28;20029;-80
2021/04/27 10:56:54;;;;;;;12.85;10.98;;;28.20;32.90;;;;;;5070605;28;20016;-81
2021/04/27 10:59:22;;;;;;;12.88;10.50;;;28.60;30.40;;;;;;5073575;28;20386;-82
2021/04/27 11:02:08;;;;;;;14.57;11.35;;;28.50;31.20;;;;;;5076491;28;20464;-82
2021/04/27 11:04:43;;;;;;;13.27;11.98;;;29.20;30.10;;;;;;5066631;28;20032;-85
2021/04/27 11:07:29;;;;;;;16.88;14.68;;;29.30;30.60;;;;;;5064792;28;20057;-83
2021/04/27 11:09:58;;;;;;;13.73;12.10;;;29.60;29.70;;;;;;5075417;28;20043;-83
2021/04/27 11:12:44;;;;;;;14.68;10.80;;;29.60;29.10;;;;;;5073782;28;20048;-82
2021/04/27 11:15:24;;;;;;;11.32;9.77;;;29.90;29.10;;;;;;5069656;28;20077;-78
2021/04/27 11:18:02;;;;;;;13.70;10.23;;;30.00;31.30;;;;;;5078870;28;20031;-77
2021/04/27 11:20:53;;;;;;;13.43;9.65;;;30.40;29.90;;;;;;5067825;28;20076;-79
2021/04/27 11:23:45;;;;;;;12.18;10.00;;;30.90;29.00;;;;;;5052005;28;20036;-79
2021/04/27 11:26:32;;;;;;;11.18;9.60;;;30.80;28.40;;;;;;5089366;28;20486;-78
2021/04/27 11:29:05;;;;;;;14.45;11.13;;;30.50;28.30;;;;;;5077392;28;20104;-78
2021/04/27 11:31:50;;;;;;;13.32;10.13;;;30.50;29.60;;;;;;5077258;28;20021;-78
2021/04/27 11:34:16;;;;;;;19.98;9.77;;;31.30;29.40;;;;;;5077284;28;20024;-79
2021/04/27 11:36:42;;;;;;;13.32;9.60;;;31.00;29.10;;;;;;5077499;28;20597;-79
2021/04/27 11:39:10;;;;;;;12.00;10.20;;;31.30;28.70;;;;;;5077314;28;20391;-79
2021/04/27 11:41:58;;;;;;;12.50;11.20;;;31.60;28.50;;;;;;5074017;28;20056;-80
2021/04/27 11:44:39;;;;;;;13.43;11.15;;;31.40;28.30;;;;;;5077328;28;20185;-80
2021/04/27 11:47:06;;;;;;;12.10;10.75;;;31.10;28.30;;;;;;5077190;28;20025;-81
2021/04/27 11:49:57;;;;;;;15.80;10.43;;;30.70;29.10;;;;;;5075204;28;20024;-80
2021/04/27 11:53:08;;;;;;;14.07;10.35;;;30.90;29.50;;;;;;5075086;28;20020;-80
2021/04/27 11:55:36;;;;;;;13.50;11.27;;;29.50;28.00;;;;;;5035262;28;20021;-80
2021/04/27 11:58:26;;;;;;;14.23;11.30;;;29.40;29.00;;;;;;5077481;28;20044;-81
2021/04/27 12:01:02;;;;;;;12.40;10.48;;;29.50;29.10;;;;;;5065373;28;20024;-80
2021/04/27 12:03:34;;;;;;;12.18;10.45;;;29.80;29.20;;;;;;5075811;28;20033;-80
2021/04/27 12:06:06;;;;;;;12.55;10.20;;;29.50;28.10;;;;;;5077335;28;20506;-81
2021/04/27 12:08:37;;;;;;;15.20;10.43;;;29.60;28.50;;;;;;5076902;28;20407;-81
2021/04/27 12:11:18;;;;;;;13.82;11.38;;;28.70;29.70;;;;;;5079871;28;20051;-80
2021/04/27 12:13:52;;;;;;;14.88;10.88;;;28.20;28.90;;;;;;5062642;28;20028;-81
2021/04/27 12:16:21;;;;;;;12.98;9.55;;;27.70;30.90;;;;;;5081283;28;20029;-81
2021/04/27 12:18:48;;;;;;;13.75;11.10;;;26.70;28.60;;;;;;5081011;28;20103;-83
2021/04/27 12:21:27;;;;;;;15.25;10.45;;;25.30;29.00;;;;;;5080999;28;20035;-83
2021/04/27 12:24:13;;;;;;;15.10;10.85;;;25.20;29.90;;;;;;5080863;28;20544;-83
2021/04/27 12:26:44;;;;;;;14.20;10.85;;;25.40;30.00;;;;;;5079354;28;20070;-83
2021/04/27 12:29:10;;;;;;;13.32;10.15;;;25.10;30.00;;;;;;5081084;28;20013;-82
2021/04/27 12:31:37;;;;;;;14.88;11.70;;;25.30;30.40;;;;;;5092889;28;20043;-82
2021/04/27 12:34:07;;;;;;;17.80;11.38;;;25.40;30.90;;;;;;5080962;28;20039;-78
2021/04/27 12:36:38;;;;;;;14.38;10.55;;;25.30;31.10;;;;;;5080616;28;20602;-83
2021/04/27 12:39:26;;;;;;;15.48;11.27;;;25.30;31.30;;;;;;5076785;28;20021;-85
2021/04/27 12:41:55;;;;;;;16.05;11.23;;;25.10;31.60;;;;;;5072985;28;20513;-84